Léopold Sédar Senghor International Airport

Airport
ICAO code: 
GOOY
IATA Code: 
DKR
Summary
ICAO Region: 
AFI
Territory: 
Location: 
Yoff, Dakar
Serving: 
Dakar
Elevation: 
85 ft
Coordinates: 
Aerial View: 
14° 44' 21.984" N, 17° 29' 24" W
Airport BS: 
Bird Strike
Metar
Observation
GOOY 050100Z 36006KT 8000 NSC 23/21 Q1013
Station
Dakar / Yoff
Date/Time
2021-12-05 01:00:00
Wind direction
360°
Wind speed
06 kts
Lowest cloud amount
nil significant cloud
Temperature
23°C
Dew point
21°C
Humidity
88%
QNH
1013 hPa
Weather condition
n/a

International airport serving the city of Dakar, capital of Senegal.

Climatology

Hot, semi-arid/Steppe climate (Köppen climate classification BSh) - hot, sometimes extremely hot summers and mild to warm winters, with low annual precipitation.

Runways

Designator Length Width Surface Rops
3/21 1500 30 ASP Yes/Yes
18/36 3490 45 ASP Yes/Yes
Airport map: 
Aerial View: 

SKYbrary Partners:

Safety knowledge contributed by: